createdAt,value
2019-03-11T00:01:26.309Z,10.75
2019-03-11T00:03:55.318Z,10.55
2019-03-11T00:06:23.227Z,10.20
2019-03-11T00:08:51.605Z,10.05
2019-03-11T00:11:19.957Z,10.33
2019-03-11T00:13:47.904Z,10.30
2019-03-11T00:16:16.219Z,10.20
2019-03-11T00:18:44.199Z,10.40
2019-03-11T00:21:12.768Z,10.00
2019-03-11T00:23:40.716Z,10.53
2019-03-11T00:26:08.658Z,8.60
2019-03-11T00:28:37.271Z,8.70
2019-03-11T00:31:05.266Z,9.10
2019-03-11T00:33:33.488Z,9.30
2019-03-11T00:36:01.713Z,9.23
2019-03-11T00:38:30.074Z,9.00
2019-03-11T00:40:58.093Z,9.40
2019-03-11T00:43:26.063Z,10.10
2019-03-11T00:45:54.519Z,8.40
2019-03-11T00:48:22.993Z,9.55
2019-03-11T00:50:51.578Z,9.35
2019-03-11T00:53:20.059Z,9.08
2019-03-11T00:55:48.440Z,8.68
2019-03-11T00:58:16.397Z,9.00
2019-03-11T01:00:44.373Z,8.50
2019-03-11T01:03:12.306Z,8.50
2019-03-11T01:05:40.588Z,8.30
2019-03-11T01:08:08.558Z,7.25
2019-03-11T01:10:36.870Z,7.40
2019-03-11T01:13:05.300Z,7.20
2019-03-11T01:15:33.254Z,7.22
2019-03-11T01:18:01.273Z,7.00
2019-03-11T01:20:29.576Z,7.25
2019-03-11T01:22:57.826Z,6.80
2019-03-11T01:25:26.121Z,6.67
2019-03-11T01:27:54.093Z,6.10
2019-03-11T01:30:22.573Z,6.67
2019-03-11T01:32:51.468Z,5.90
2019-03-11T01:35:19.744Z,6.60
2019-03-11T01:37:47.690Z,6.60
2019-03-11T01:40:15.974Z,5.72
2019-03-11T01:42:44.275Z,5.80
2019-03-11T01:45:13.312Z,5.58
2019-03-11T01:47:41.450Z,5.58
2019-03-11T01:50:09.794Z,5.20
2019-03-11T01:52:38.173Z,5.50
2019-03-11T01:55:07.188Z,5.20
2019-03-11T01:57:35.438Z,5.30
2019-03-11T02:00:04.431Z,5.50
2019-03-11T02:02:33.038Z,5.90
2019-03-11T02:05:01.325Z,6.22
2019-03-11T02:07:29.603Z,6.80
2019-03-11T02:09:57.833Z,6.62
2019-03-11T02:12:26.201Z,5.90
2019-03-11T02:14:54.221Z,5.90
2019-03-11T02:17:22.549Z,5.72
2019-03-11T02:19:50.557Z,6.35
2019-03-11T02:22:18.488Z,5.90
2019-03-11T02:24:46.818Z,5.53
2019-03-11T02:27:15.588Z,5.47
2019-03-11T02:29:43.574Z,4.97
2019-03-11T02:32:12.173Z,4.80
2019-03-11T02:34:40.386Z,4.70
2019-03-11T02:37:08.769Z,4.12
2019-03-11T02:39:36.683Z,4.20
2019-03-11T02:42:04.893Z,4.30
2019-03-11T02:44:33.134Z,4.30
2019-03-11T02:47:01.052Z,4.00
2019-03-11T02:49:28.998Z,4.10
2019-03-11T02:51:57.216Z,4.00
2019-03-11T02:54:25.177Z,4.10
2019-03-11T02:56:53.178Z,3.50
2019-03-11T02:59:21.144Z,3.72
2019-03-11T03:02:03.263Z,3.25
2019-03-11T03:04:43.839Z,2.70
2019-03-11T03:07:12.097Z,2.90
2019-03-11T03:09:40.351Z,2.80
2019-03-11T03:12:08.704Z,2.40
2019-03-11T03:14:37.012Z,2.70
2019-03-11T03:17:04.974Z,2.40
2019-03-11T03:19:33.284Z,2.40
2019-03-11T03:22:01.261Z,2.30
2019-03-11T03:24:29.213Z,2.30
2019-03-11T03:26:57.502Z,2.12
2019-03-11T03:29:25.773Z,2.20
2019-03-11T03:31:54.051Z,2.50
2019-03-11T03:34:22.231Z,2.83
2019-03-11T03:36:50.504Z,2.47
2019-03-11T03:39:18.469Z,2.70
2019-03-11T03:41:46.429Z,2.60
2019-03-11T03:44:14.531Z,2.70
2019-03-11T03:46:42.481Z,2.70
2019-03-11T03:49:11.071Z,2.50
2019-03-11T03:51:39.347Z,2.60
2019-03-11T03:54:07.869Z,2.90
2019-03-11T03:56:35.815Z,2.60
2019-03-11T03:59:03.762Z,2.40
2019-03-11T04:01:32.116Z,2.70
2019-03-11T04:04:00.326Z,2.80
2019-03-11T04:06:29.575Z,2.60
2019-03-11T04:08:57.539Z,4.40
2019-03-11T04:11:25.478Z,3.65
2019-03-11T04:13:54.041Z,2.87
2019-03-11T04:16:22.039Z,3.00
2019-03-11T04:18:50.820Z,2.70
2019-03-11T04:21:19.028Z,2.90
2019-03-11T04:23:46.971Z,3.00
2019-03-11T04:26:15.172Z,2.80
2019-03-11T04:28:43.502Z,3.00
2019-03-11T04:31:11.474Z,3.00
2019-03-11T04:33:39.454Z,2.92
2019-03-11T04:36:08.022Z,2.90
2019-03-11T04:38:35.966Z,2.75
2019-03-11T04:41:04.273Z,3.15
2019-03-11T04:43:32.252Z,2.85
2019-03-11T04:46:00.817Z,3.12
2019-03-11T04:48:28.774Z,3.30
2019-03-11T04:50:56.802Z,3.30
2019-03-11T04:53:25.069Z,3.33
2019-03-11T04:55:53.314Z,3.30
2019-03-11T04:58:21.595Z,3.35
2019-03-11T05:00:49.873Z,3.50
2019-03-11T05:03:17.812Z,4.08
2019-03-11T05:05:46.182Z,4.25
2019-03-11T05:08:14.442Z,3.70
2019-03-11T05:10:42.944Z,4.00
2019-03-11T05:13:11.161Z,4.12
2019-03-11T05:15:39.422Z,4.50
2019-03-11T05:18:07.509Z,4.37
2019-03-11T05:20:35.782Z,4.60
2019-03-11T05:23:04.053Z,4.50
2019-03-11T05:25:32.333Z,4.62
2019-03-11T05:28:00.309Z,4.90
2019-03-11T05:30:28.586Z,4.70
2019-03-11T05:32:56.536Z,5.00
2019-03-11T05:35:24.800Z,5.00
2019-03-11T05:37:53.190Z,4.90
2019-03-11T05:40:21.171Z,4.60
2019-03-11T05:42:49.102Z,4.92
2019-03-11T05:45:17.689Z,5.00
2019-03-11T05:47:45.900Z,4.70
2019-03-11T05:50:14.798Z,4.80
2019-03-11T05:52:43.156Z,4.72
2019-03-11T05:55:11.204Z,4.33
2019-03-11T05:57:39.144Z,4.72
2019-03-11T06:00:08.763Z,4.10
2019-03-11T06:02:36.839Z,3.65
2019-03-11T06:05:04.898Z,3.50
2019-03-11T06:07:33.148Z,3.22
2019-03-11T06:10:01.483Z,3.10
2019-03-11T06:12:30.529Z,3.10
2019-03-11T06:14:58.485Z,2.80
2019-03-11T06:17:26.770Z,2.90
2019-03-11T06:20:05.024Z,3.00
2019-03-11T06:22:34.299Z,2.80
2019-03-11T06:25:02.255Z,2.67
2019-03-11T06:27:30.914Z,2.40
2019-03-11T06:29:58.912Z,2.90
2019-03-11T06:32:26.872Z,2.92
2019-03-11T06:34:54.837Z,2.50
2019-03-11T06:37:23.521Z,2.90
2019-03-11T06:39:51.472Z,2.70
2019-03-11T06:42:19.454Z,3.00
2019-03-11T06:44:47.392Z,3.25
2019-03-11T06:47:15.403Z,3.20
2019-03-11T06:49:44.032Z,4.10
2019-03-11T06:52:12.355Z,4.85
2019-03-11T06:54:40.353Z,3.80
2019-03-11T06:57:09.324Z,3.80
2019-03-11T06:59:37.788Z,4.25
2019-03-11T07:02:06.089Z,4.30
2019-03-11T07:04:34.012Z,4.05
2019-03-11T07:07:02.236Z,3.80
2019-03-11T07:09:30.293Z,4.07
2019-03-11T07:11:59.003Z,4.30
2019-03-11T07:14:27.269Z,3.90
2019-03-11T07:16:55.553Z,4.00
2019-03-11T07:19:23.586Z,4.00
2019-03-11T07:21:51.888Z,4.12
2019-03-11T07:24:19.820Z,4.30
2019-03-11T07:26:47.769Z,4.58
2019-03-11T07:29:15.728Z,4.67
2019-03-11T07:31:43.978Z,4.37
2019-03-11T07:34:12.257Z,4.40
2019-03-11T07:36:40.860Z,4.80
2019-03-11T07:39:08.782Z,4.60
2019-03-11T07:41:36.760Z,4.40
2019-03-11T07:44:05.058Z,4.87
2019-03-11T07:46:33.340Z,4.60
2019-03-11T07:49:01.562Z,5.50
2019-03-11T07:51:29.493Z,4.90
2019-03-11T07:53:57.461Z,4.80
2019-03-11T07:56:25.499Z,5.40
2019-03-11T07:58:53.844Z,5.28
2019-03-11T08:01:22.376Z,5.20
2019-03-11T08:03:50.659Z,5.60
2019-03-11T08:06:19.215Z,5.87
2019-03-11T08:08:47.204Z,5.60
2019-03-11T08:11:15.380Z,5.72
2019-03-11T08:13:43.866Z,5.72
2019-03-11T08:16:11.838Z,5.47
2019-03-11T08:18:40.423Z,6.37
2019-03-11T08:21:09.852Z,5.80
2019-03-11T08:23:38.211Z,5.55
2019-03-11T08:26:06.548Z,5.50
2019-03-11T08:28:34.535Z,5.30
2019-03-11T08:31:02.826Z,4.92
2019-03-11T08:33:31.156Z,5.30
2019-03-11T08:35:59.124Z,5.60
2019-03-11T08:38:27.417Z,5.20
2019-03-11T08:40:55.723Z,4.55
2019-03-11T08:43:25.165Z,4.50
2019-03-11T08:45:53.582Z,5.30
2019-03-11T08:48:22.206Z,5.00
2019-03-11T08:50:50.140Z,4.60
2019-03-11T08:53:18.117Z,5.35
2019-03-11T08:55:46.074Z,3.90
2019-03-11T08:58:14.382Z,4.50
2019-03-11T09:00:42.667Z,4.53
2019-03-11T09:03:10.620Z,5.40
2019-03-11T09:05:39.124Z,4.00
2019-03-11T09:08:07.131Z,3.90
2019-03-11T09:10:35.306Z,3.60
2019-03-11T09:13:42.881Z,2.87
2019-03-11T09:16:10.886Z,2.95
2019-03-11T09:18:38.882Z,3.20
2019-03-11T09:21:07.297Z,3.37
2019-03-11T09:23:35.366Z,3.20
2019-03-11T09:26:03.496Z,3.05
2019-03-11T09:28:32.024Z,3.00
2019-03-11T09:31:00.252Z,3.30
2019-03-11T09:33:28.764Z,3.12
2019-03-11T09:35:56.877Z,3.15
2019-03-11T09:38:24.988Z,2.80
2019-03-11T09:40:53.382Z,3.00
2019-03-11T09:43:21.736Z,2.60
2019-03-11T09:45:50.569Z,2.60
2019-03-11T09:48:18.834Z,2.50
2019-03-11T09:50:47.169Z,2.50
2019-03-11T09:53:15.249Z,2.70
2019-03-11T09:55:43.873Z,2.40
2019-03-11T09:58:12.564Z,2.60
2019-03-11T10:00:40.560Z,2.70
2019-03-11T10:03:08.518Z,3.30
2019-03-11T10:05:36.470Z,2.40
2019-03-11T10:08:04.849Z,2.30
2019-03-11T10:10:33.132Z,2.60
2019-03-11T10:13:01.492Z,2.00
2019-03-11T10:15:29.428Z,1.80
2019-03-11T10:17:57.749Z,2.20
2019-03-11T10:20:25.730Z,2.00
2019-03-11T10:22:54.004Z,2.00
2019-03-11T10:25:22.993Z,1.90
2019-03-11T10:27:53.170Z,1.80
2019-03-11T10:30:21.223Z,1.70
2019-03-11T10:32:49.600Z,1.62
2019-03-11T10:35:33.208Z,1.80
2019-03-11T10:37:47.858Z,1.70
2019-03-11T10:40:16.968Z,1.50
2019-03-11T10:42:44.978Z,1.70
2019-03-11T10:45:13.224Z,1.67
2019-03-11T10:47:41.477Z,1.60
2019-03-11T10:50:10.166Z,1.63
2019-03-11T10:52:38.519Z,1.67
2019-03-11T10:55:07.230Z,1.50
2019-03-11T10:57:35.321Z,1.80
2019-03-11T11:00:03.397Z,2.00
2019-03-11T11:02:31.754Z,2.50
2019-03-11T11:05:00.176Z,2.00
2019-03-11T11:07:28.924Z,1.90
2019-03-11T11:09:57.303Z,2.05
2019-03-11T11:12:25.639Z,2.30
2019-03-11T11:14:53.949Z,2.30
2019-03-11T11:17:21.930Z,2.60
2019-03-11T11:19:49.933Z,2.70
2019-03-11T11:22:18.176Z,3.20
2019-03-11T11:24:46.447Z,2.90
2019-03-11T11:27:15.373Z,3.00
2019-03-11T11:29:43.617Z,3.70
2019-03-11T11:32:11.881Z,3.45
2019-03-11T11:34:39.830Z,4.47
2019-03-11T11:37:08.137Z,4.42
2019-03-11T11:39:36.171Z,4.40
2019-03-11T11:42:05.002Z,5.30
2019-03-11T11:44:33.012Z,4.80
2019-03-11T11:47:01.318Z,5.50
2019-03-11T11:49:29.296Z,5.30
2019-03-11T11:51:57.557Z,4.97
2019-03-11T11:54:25.878Z,4.80
2019-03-11T11:56:54.123Z,5.08
2019-03-11T11:59:22.033Z,5.10
2019-03-11T12:02:03.730Z,5.25
2019-03-11T12:04:25.737Z,5.50
2019-03-11T12:06:53.693Z,5.40
2019-03-11T12:09:21.686Z,6.20
2019-03-11T12:11:50.471Z,5.10
2019-03-11T12:14:18.474Z,5.22
2019-03-11T12:16:46.415Z,5.10
2019-03-11T12:19:14.500Z,4.20
2019-03-11T12:21:42.476Z,4.65
2019-03-11T12:24:10.726Z,4.22
2019-03-11T12:26:38.779Z,4.37
2019-03-11T12:29:07.075Z,4.08
2019-03-11T12:31:35.348Z,4.00
2019-03-11T12:34:03.341Z,3.40
2019-03-11T12:36:32.208Z,3.87
2019-03-11T12:39:00.594Z,3.83
2019-03-11T12:41:29.244Z,3.05
2019-03-11T12:43:57.757Z,3.10
2019-03-11T12:46:26.035Z,3.60
2019-03-11T12:48:53.994Z,3.22
2019-03-11T12:51:22.280Z,3.98
2019-03-11T12:53:50.554Z,2.90
2019-03-11T12:56:18.629Z,3.02
2019-03-11T12:58:46.544Z,3.08
2019-03-11T13:01:15.086Z,2.83
2019-03-11T13:03:43.077Z,3.00
2019-03-11T13:06:11.625Z,2.70
2019-03-11T13:08:39.904Z,2.65
2019-03-11T13:11:07.880Z,2.30
2019-03-11T13:13:36.166Z,2.90
2019-03-11T13:16:04.117Z,2.40
2019-03-11T13:18:39.457Z,2.90
2019-03-11T13:21:09.342Z,2.30
2019-03-11T13:23:37.360Z,2.50
2019-03-11T13:26:05.382Z,2.10
2019-03-11T13:28:33.308Z,2.70
2019-03-11T13:31:01.240Z,2.60
2019-03-11T13:33:29.546Z,2.50
2019-03-11T13:35:58.124Z,2.35
2019-03-11T13:38:26.405Z,2.55
2019-03-11T13:40:54.988Z,2.45
2019-03-11T13:43:22.953Z,2.70
2019-03-11T13:45:51.230Z,3.35
2019-03-11T13:48:19.516Z,4.17
2019-03-11T13:50:47.732Z,3.72
2019-03-11T13:53:16.274Z,3.90
2019-03-11T13:55:44.497Z,4.30
2019-03-11T13:58:12.502Z,4.45
2019-03-11T14:00:40.692Z,4.20
2019-03-11T14:03:08.646Z,3.83
2019-03-11T14:05:36.942Z,1.40
2019-03-11T14:08:04.945Z,1.60
2019-03-11T14:10:33.494Z,1.40
2019-03-11T14:13:01.729Z,1.65
2019-03-11T14:15:30.457Z,1.70
2019-03-11T14:17:59.042Z,2.10
2019-03-11T14:20:26.972Z,2.25
2019-03-11T14:22:54.922Z,13.45
2019-03-11T14:25:22.902Z,4.10
2019-03-11T14:27:51.538Z,1.87
2019-03-11T14:30:20.121Z,2.12
2019-03-11T14:32:48.344Z,3.27
2019-03-11T14:35:16.667Z,2.83
2019-03-11T14:37:45.256Z,2.50
2019-03-11T14:40:13.233Z,2.50
2019-03-11T14:42:41.209Z,2.42
2019-03-11T14:45:10.305Z,2.50
2019-03-11T14:47:38.571Z,2.90
2019-03-11T14:50:07.739Z,2.77
2019-03-11T14:52:36.029Z,3.30
2019-03-11T14:55:04.398Z,2.60
2019-03-11T14:57:32.349Z,4.53
2019-03-11T15:00:00.484Z,13.50
2019-03-11T15:02:28.702Z,4.55
2019-03-11T15:04:56.993Z,8.28
2019-03-11T15:07:24.933Z,10.73
2019-03-11T15:09:53.165Z,3.80
2019-03-11T15:12:21.112Z,3.50
2019-03-11T15:14:49.114Z,3.90
2019-03-11T15:17:17.141Z,3.40
2019-03-11T15:19:45.558Z,2.75
2019-03-11T15:22:13.884Z,2.47
2019-03-11T15:24:41.825Z,2.47
2019-03-11T15:27:09.781Z,2.62
2019-03-11T15:29:38.047Z,2.40
2019-03-11T15:32:06.080Z,2.40
2019-03-11T15:34:34.043Z,2.55
2019-03-11T15:37:02.391Z,2.60
2019-03-11T15:39:30.658Z,2.80
2019-03-11T15:41:59.292Z,2.80
2019-03-11T15:44:27.630Z,4.45
2019-03-11T15:46:56.606Z,2.85
2019-03-11T15:49:24.673Z,2.60
2019-03-11T15:51:52.632Z,2.50
2019-03-11T15:54:20.816Z,2.85
2019-03-11T15:56:48.803Z,2.80
2019-03-11T15:59:17.163Z,2.83
2019-03-11T16:01:45.453Z,2.90
2019-03-11T16:04:13.366Z,3.00
2019-03-11T16:06:41.996Z,3.30
2019-03-11T16:09:18.679Z,2.40
2019-03-11T16:11:40.867Z,2.80
2019-03-11T16:14:11.880Z,2.92
2019-03-11T16:16:40.112Z,3.17
2019-03-11T16:19:08.399Z,2.60
2019-03-11T16:21:37.649Z,3.30
2019-03-11T16:24:06.006Z,3.20
2019-03-11T16:26:33.951Z,3.67
2019-03-11T16:29:01.908Z,4.62
2019-03-11T16:31:30.915Z,3.12
2019-03-11T16:33:59.550Z,1.90
2019-03-11T16:36:28.211Z,2.02
2019-03-11T16:38:57.582Z,2.60
2019-03-11T16:41:25.852Z,2.55
2019-03-11T16:43:54.165Z,2.40
2019-03-11T16:46:22.422Z,2.70
2019-03-11T16:48:50.361Z,2.85
2019-03-11T16:51:19.069Z,2.30
2019-03-11T16:53:47.401Z,2.80
2019-03-11T16:56:15.357Z,2.45
2019-03-11T16:58:43.320Z,2.80
2019-03-11T17:01:12.182Z,2.83
2019-03-11T17:03:40.689Z,2.75
2019-03-11T17:06:09.163Z,3.10
2019-03-11T17:08:37.127Z,2.35
2019-03-11T17:11:05.519Z,2.50
2019-03-11T17:13:33.870Z,3.25
2019-03-11T17:16:02.046Z,2.72
2019-03-11T17:18:30.488Z,2.50
2019-03-11T17:20:58.802Z,2.30
2019-03-11T17:23:27.057Z,2.30
2019-03-11T17:25:55.341Z,2.62
2019-03-11T17:28:24.038Z,2.30
2019-03-11T17:30:52.319Z,2.30
2019-03-11T17:33:20.314Z,2.67
2019-03-11T17:35:49.184Z,2.50
2019-03-11T17:38:17.457Z,2.40
2019-03-11T17:40:45.384Z,2.10
2019-03-11T17:43:13.389Z,2.60
2019-03-11T17:45:41.345Z,2.60
2019-03-11T17:48:10.058Z,2.22
2019-03-11T17:50:38.271Z,2.30
2019-03-11T17:53:06.906Z,2.45
2019-03-11T17:55:34.865Z,22.82
2019-03-11T17:58:03.576Z,30.60
2019-03-11T18:00:32.445Z,28.52
2019-03-11T18:03:00.996Z,12.75
2019-03-11T18:05:29.001Z,4.40
2019-03-11T18:07:57.292Z,3.20
2019-03-11T18:10:25.383Z,2.83
2019-03-11T18:12:53.350Z,3.10
2019-03-11T18:15:21.679Z,3.00
2019-03-11T18:17:49.850Z,3.50
2019-03-11T18:20:17.882Z,3.20
2019-03-11T18:22:46.300Z,3.33
2019-03-11T18:25:15.019Z,3.00
2019-03-11T18:27:42.965Z,3.10
2019-03-11T18:30:12.328Z,3.20
2019-03-11T18:32:40.547Z,3.50
2019-03-11T18:35:08.530Z,3.77
2019-03-11T18:37:36.498Z,3.83
2019-03-11T18:40:04.602Z,3.83
2019-03-11T18:42:32.956Z,4.00
2019-03-11T18:45:00.882Z,5.70
2019-03-11T18:47:28.886Z,4.87
2019-03-11T18:49:56.851Z,5.07
2019-03-11T18:52:24.824Z,4.47
2019-03-11T18:54:53.122Z,5.10
2019-03-11T18:57:21.913Z,5.30
2019-03-11T18:59:50.196Z,4.58
2019-03-11T19:02:18.457Z,5.25
2019-03-11T19:04:47.220Z,6.22
2019-03-11T19:07:15.494Z,6.03
2019-03-11T19:09:43.811Z,6.22
2019-03-11T19:12:11.814Z,6.00
2019-03-11T19:14:40.087Z,10.93
2019-03-11T19:17:08.384Z,6.80
2019-03-11T19:19:45.657Z,6.20
2019-03-11T19:22:06.237Z,6.30
2019-03-11T19:24:34.266Z,6.50
2019-03-11T19:27:02.886Z,6.40
2019-03-11T19:29:31.142Z,6.10
2019-03-11T19:31:59.091Z,5.60
2019-03-11T19:34:27.872Z,6.20
2019-03-11T19:36:56.132Z,6.65
2019-03-11T19:39:24.245Z,6.78
2019-03-11T19:41:52.664Z,6.50
2019-03-11T19:44:21.135Z,7.17
2019-03-11T19:46:49.484Z,7.30
2019-03-11T19:49:17.439Z,7.75
2019-03-11T19:51:45.699Z,7.10
2019-03-11T19:54:13.665Z,7.50
2019-03-11T19:56:41.899Z,7.45
2019-03-11T19:59:09.913Z,7.50
2019-03-11T20:01:38.331Z,7.08
2019-03-11T20:04:06.676Z,14.50
2019-03-11T20:06:34.696Z,31.10
2019-03-11T20:09:03.593Z,29.20
2019-03-11T20:11:31.604Z,35.00
2019-03-11T20:13:59.553Z,13.72
2019-03-11T20:16:27.902Z,17.23
2019-03-11T20:18:55.837Z,16.55
2019-03-11T20:21:23.874Z,18.87
2019-03-11T20:23:51.757Z,9.93
2019-03-11T20:26:20.390Z,9.50
2019-03-11T20:28:49.169Z,9.70
2019-03-11T20:31:17.111Z,8.20
2019-03-11T20:33:45.495Z,10.95
2019-03-11T20:36:20.845Z,10.77
2019-03-11T20:38:43.455Z,9.10
2019-03-11T20:41:11.569Z,8.90
2019-03-11T20:43:39.872Z,8.30
2019-03-11T20:46:08.229Z,8.45
2019-03-11T20:48:36.183Z,9.48
2019-03-11T20:51:04.493Z,9.03
2019-03-11T20:53:32.492Z,9.50
2019-03-11T20:56:00.678Z,9.50
2019-03-11T20:58:29.329Z,9.37
2019-03-11T21:00:57.796Z,10.48
2019-03-11T21:03:25.685Z,12.90
2019-03-11T21:05:54.099Z,17.20
2019-03-11T21:08:22.020Z,20.05
2019-03-11T21:10:50.607Z,18.82
2019-03-11T21:13:18.566Z,14.83
2019-03-11T21:15:46.532Z,16.83
2019-03-11T21:18:15.011Z,10.85
2019-03-11T21:20:43.045Z,10.80
2019-03-11T21:23:11.275Z,9.90
2019-03-11T21:25:39.550Z,9.58
2019-03-11T21:28:07.902Z,10.40
2019-03-11T21:30:35.814Z,10.48
2019-03-11T21:33:03.844Z,10.30
2019-03-11T21:35:31.927Z,13.08
2019-03-11T21:38:00.224Z,15.08
2019-03-11T21:40:28.557Z,14.47
2019-03-11T21:42:56.878Z,17.80
2019-03-11T21:45:34.024Z,14.90
2019-03-11T21:47:54.478Z,13.32
2019-03-11T21:50:22.612Z,15.48
2019-03-11T21:52:50.978Z,14.70
2019-03-11T21:55:19.048Z,17.90
2019-03-11T21:57:47.211Z,19.57
2019-03-11T22:00:16.785Z,18.17
2019-03-11T22:02:44.656Z,19.67
2019-03-11T22:05:12.963Z,21.17
2019-03-11T22:07:40.974Z,22.93
2019-03-11T22:10:09.742Z,23.15
2019-03-11T22:12:37.701Z,24.18
2019-03-11T22:15:05.889Z,24.55
2019-03-11T22:17:35.506Z,26.20
2019-03-11T22:20:03.771Z,26.40
2019-03-11T22:22:31.966Z,27.30
2019-03-11T22:25:00.385Z,29.57
2019-03-11T22:27:28.414Z,29.43
2019-03-11T22:29:56.965Z,29.70
2019-03-11T22:32:25.605Z,29.72
2019-03-11T22:34:53.970Z,30.80
2019-03-11T22:37:22.549Z,30.05
2019-03-11T22:39:51.101Z,32.78
2019-03-11T22:42:19.370Z,32.53
2019-03-11T22:44:47.352Z,30.90
2019-03-11T22:47:15.840Z,31.52
2019-03-11T22:49:44.105Z,31.82
2019-03-11T22:52:12.409Z,31.35
2019-03-11T22:54:40.944Z,32.20
2019-03-11T22:57:08.913Z,30.95
2019-03-11T22:59:37.169Z,29.55
2019-03-11T23:02:05.528Z,30.48
2019-03-11T23:04:34.032Z,29.60
2019-03-11T23:07:02.699Z,28.30
2019-03-11T23:09:30.981Z,28.98
2019-03-11T23:11:59.254Z,28.30
2019-03-11T23:14:27.496Z,30.27
2019-03-11T23:16:55.801Z,28.45
2019-03-11T23:19:23.762Z,28.12
2019-03-11T23:21:51.686Z,27.58
2019-03-11T23:24:19.640Z,27.32
2019-03-11T23:26:47.978Z,27.25
2019-03-11T23:29:16.349Z,26.45
2019-03-11T23:31:44.642Z,27.43
2019-03-11T23:34:12.614Z,28.47
2019-03-11T23:36:40.577Z,29.90
2019-03-11T23:39:08.816Z,26.55
2019-03-11T23:41:36.725Z,27.50
2019-03-11T23:44:04.677Z,26.12
2019-03-11T23:46:32.985Z,27.32
2019-03-11T23:49:01.328Z,27.75
2019-03-11T23:51:30.137Z,27.07
2019-03-11T23:53:58.462Z,25.90
2019-03-11T23:56:26.744Z,26.23
2019-03-11T23:58:54.736Z,25.23
